createdAt,value
2023-02-11T00:00:02.847Z,54.70
2023-02-11T00:01:37.924Z,59.03
2023-02-11T00:03:10.972Z,56.65
2023-02-11T00:04:43.714Z,53.40
2023-02-11T00:06:15.817Z,52.78
2023-02-11T00:07:48.538Z,56.40
2023-02-11T00:09:21.242Z,52.53
2023-02-11T00:10:53.296Z,52.17
2023-02-11T00:12:26.327Z,57.53
2023-02-11T00:14:00.576Z,51.40
2023-02-11T00:15:33.299Z,57.53
2023-02-11T00:17:07.486Z,55.35
2023-02-11T00:18:40.300Z,54.60
2023-02-11T00:20:13.008Z,54.55
2023-02-11T00:21:45.737Z,52.78
2023-02-11T00:23:18.463Z,54.90
2023-02-11T00:24:54.153Z,50.65
2023-02-11T00:26:28.268Z,51.55
2023-02-11T00:28:01.032Z,53.58
2023-02-11T00:29:33.751Z,55.00
2023-02-11T00:31:07.428Z,55.13
2023-02-11T00:32:42.569Z,54.45
2023-02-11T00:34:15.313Z,57.08
2023-02-11T00:35:47.052Z,56.65
2023-02-11T00:37:19.776Z,55.97
2023-02-11T00:38:54.006Z,53.20
2023-02-11T00:40:26.732Z,56.40
2023-02-11T00:42:00.114Z,57.75
2023-02-11T00:43:31.926Z,56.50
2023-02-11T00:45:05.534Z,54.53
2023-02-11T00:46:38.297Z,53.38
2023-02-11T00:48:12.381Z,53.33
2023-02-11T00:49:45.190Z,55.03
2023-02-11T00:51:17.935Z,55.83
2023-02-11T00:52:50.710Z,55.75
2023-02-11T00:54:22.469Z,51.30
2023-02-11T00:55:55.154Z,56.08
2023-02-11T00:57:27.916Z,52.63
2023-02-11T00:59:00.595Z,56.20
2023-02-11T01:00:32.342Z,53.25
2023-02-11T01:02:05.162Z,56.15
2023-02-11T01:03:39.692Z,52.05
2023-02-11T01:05:12.582Z,53.95
2023-02-11T01:06:45.349Z,54.33
2023-02-11T01:08:17.136Z,52.63
2023-02-11T01:09:49.834Z,53.83
2023-02-11T01:11:22.996Z,56.78
2023-02-11T01:12:55.996Z,49.90
2023-02-11T01:14:28.836Z,54.58
2023-02-11T01:16:01.597Z,54.80
2023-02-11T01:17:34.799Z,53.78
2023-02-11T01:19:08.827Z,54.92
2023-02-11T01:20:40.677Z,53.67
2023-02-11T01:22:13.438Z,55.50
2023-02-11T01:23:46.264Z,56.38
2023-02-11T01:25:19.300Z,55.33
2023-02-11T01:26:52.143Z,51.67
2023-02-11T01:28:26.988Z,55.47
2023-02-11T01:29:59.846Z,55.25
2023-02-11T01:31:33.072Z,53.67
2023-02-11T01:33:05.854Z,52.50
2023-02-11T01:34:39.903Z,52.55
2023-02-11T01:36:13.494Z,56.55
2023-02-11T01:37:46.214Z,54.80
2023-02-11T01:39:18.911Z,54.97
2023-02-11T01:40:53.199Z,53.85
2023-02-11T01:42:25.924Z,54.65
2023-02-11T01:43:58.984Z,50.75
2023-02-11T01:46:18.395Z,50.67
2023-02-11T01:47:51.136Z,52.83
2023-02-11T01:49:28.506Z,53.88
2023-02-11T01:51:07.146Z,55.22
2023-02-11T01:52:42.520Z,53.90
2023-02-11T01:54:36.592Z,54.30
2023-02-11T01:56:29.858Z,51.92
2023-02-11T01:58:05.886Z,51.08
2023-02-11T01:59:41.790Z,55.33
2023-02-11T02:01:18.656Z,49.97
2023-02-11T02:02:57.012Z,52.53
2023-02-11T02:04:35.430Z,53.55
2023-02-11T02:06:15.906Z,51.75
2023-02-11T02:07:57.335Z,53.10
2023-02-11T02:09:35.526Z,54.33
2023-02-11T02:11:08.751Z,47.80
2023-02-11T02:12:41.526Z,49.50
2023-02-11T02:14:13.361Z,56.90
2023-02-11T02:15:51.764Z,48.58
2023-02-11T02:17:35.042Z,49.13
2023-02-11T02:19:29.982Z,51.88
2023-02-11T02:21:42.004Z,53.92
2023-02-11T02:23:30.529Z,51.05
2023-02-11T02:25:38.690Z,50.05
2023-02-11T02:27:30.391Z,50.65
2023-02-11T02:29:30.326Z,46.28
2023-02-11T02:31:57.034Z,47.03
2023-02-11T02:33:49.714Z,49.50
2023-02-11T02:35:32.088Z,50.35
2023-02-11T02:37:10.342Z,47.78
2023-02-11T02:38:52.172Z,49.75
2023-02-11T02:40:30.367Z,46.55
2023-02-11T02:42:03.481Z,48.42
2023-02-11T02:43:39.757Z,48.90
2023-02-11T02:45:13.574Z,52.55
2023-02-11T02:46:46.593Z,50.92
2023-02-11T02:48:29.506Z,54.35
2023-02-11T02:50:04.011Z,51.55
2023-02-11T02:51:59.896Z,51.55
2023-02-11T02:53:45.137Z,49.97
2023-02-11T02:55:32.796Z,55.58
2023-02-11T02:57:20.499Z,51.67
2023-02-11T02:59:13.210Z,48.13
2023-02-11T03:00:59.152Z,52.38
2023-02-11T03:02:37.404Z,49.35
2023-02-11T03:04:18.270Z,49.38
2023-02-11T03:05:57.986Z,46.33
2023-02-11T03:07:38.509Z,52.88
2023-02-11T03:09:16.939Z,49.67
2023-02-11T03:10:52.346Z,47.45
2023-02-11T03:12:27.225Z,44.50
2023-02-11T03:14:04.067Z,48.25
2023-02-11T03:15:41.382Z,44.80
2023-02-11T03:17:17.047Z,46.92
2023-02-11T03:18:53.639Z,48.10
2023-02-11T03:20:27.857Z,51.25
2023-02-11T03:22:06.332Z,47.97
2023-02-11T03:23:40.801Z,47.13
2023-02-11T03:25:14.038Z,49.15
2023-02-11T03:26:50.925Z,42.80
2023-02-11T03:28:30.352Z,44.75
2023-02-11T03:30:11.283Z,44.75
2023-02-11T03:31:55.466Z,45.28
2023-02-11T03:33:32.629Z,50.35
2023-02-11T03:35:12.558Z,47.22
2023-02-11T03:36:49.739Z,47.38
2023-02-11T03:38:28.613Z,45.28
2023-02-11T03:40:05.727Z,48.20
2023-02-11T03:41:39.553Z,48.30
2023-02-11T03:43:18.463Z,47.50
2023-02-11T03:44:56.805Z,43.47
2023-02-11T03:46:32.422Z,45.53
2023-02-11T03:48:07.779Z,46.00
2023-02-11T03:49:42.604Z,46.15
2023-02-11T03:51:16.946Z,42.35
2023-02-11T03:52:50.852Z,49.10
2023-02-11T03:54:29.080Z,48.45
2023-02-11T03:56:06.133Z,47.85
2023-02-11T03:57:38.957Z,42.53
2023-02-11T03:59:11.647Z,48.60
2023-02-11T04:00:45.291Z,45.83
2023-02-11T04:02:18.042Z,44.88
2023-02-11T04:03:50.725Z,47.00
2023-02-11T04:05:23.555Z,44.45
2023-02-11T04:06:57.670Z,48.00
2023-02-11T04:08:31.865Z,43.90
2023-02-11T04:10:07.280Z,44.78
2023-02-11T04:11:39.996Z,46.78
2023-02-11T04:13:12.698Z,42.47
2023-02-11T04:14:44.521Z,44.03
2023-02-11T04:16:17.298Z,46.65
2023-02-11T04:17:49.077Z,43.30
2023-02-11T04:19:21.809Z,43.88
2023-02-11T04:20:53.535Z,43.92
2023-02-11T04:22:26.339Z,42.65
2023-02-11T04:23:58.049Z,48.38
2023-02-11T04:25:32.240Z,42.88
2023-02-11T04:27:05.053Z,45.17
2023-02-11T04:28:37.846Z,47.03
2023-02-11T04:30:10.537Z,45.22
2023-02-11T04:31:43.247Z,49.92
2023-02-11T04:33:14.973Z,45.28
2023-02-11T04:34:48.289Z,43.83
2023-02-11T04:36:21.059Z,45.70
2023-02-11T04:37:53.801Z,45.03
2023-02-11T04:39:26.511Z,45.45
2023-02-11T04:41:01.085Z,48.20
2023-02-11T04:42:33.786Z,47.08
2023-02-11T04:44:06.923Z,44.47
2023-02-11T04:45:39.638Z,47.45
2023-02-11T04:47:13.320Z,43.88
2023-02-11T04:48:46.056Z,45.63
2023-02-11T04:50:18.958Z,43.42
2023-02-11T04:51:51.981Z,43.45
2023-02-11T04:53:24.682Z,43.33
2023-02-11T04:54:57.442Z,44.47
2023-02-11T04:56:30.525Z,48.65
2023-02-11T04:58:03.219Z,44.78
2023-02-11T04:59:35.914Z,45.53
2023-02-11T05:01:08.006Z,43.08
2023-02-11T05:02:40.770Z,47.40
2023-02-11T05:04:12.562Z,49.97
2023-02-11T05:05:45.341Z,47.40
2023-02-11T05:07:17.078Z,43.53
2023-02-11T05:08:50.010Z,46.13
2023-02-11T05:10:22.740Z,47.67
2023-02-11T05:11:56.833Z,46.75
2023-02-11T05:13:29.584Z,43.72
2023-02-11T05:15:01.330Z,45.22
2023-02-11T05:16:34.568Z,48.83
2023-02-11T05:18:07.447Z,43.15
2023-02-11T05:19:40.231Z,46.53
2023-02-11T05:21:15.785Z,45.97
2023-02-11T05:22:48.747Z,42.40
2023-02-11T05:24:21.601Z,44.67
2023-02-11T05:25:54.316Z,44.55
2023-02-11T05:27:28.440Z,46.47
2023-02-11T05:29:01.318Z,47.58
2023-02-11T05:30:34.425Z,47.58
2023-02-11T05:32:08.927Z,46.53
2023-02-11T05:33:42.253Z,43.47
2023-02-11T05:35:15.012Z,46.30
2023-02-11T05:36:47.750Z,43.20
2023-02-11T05:38:20.472Z,47.25
2023-02-11T05:39:53.188Z,48.40
2023-02-11T05:41:25.893Z,46.03
2023-02-11T05:42:59.916Z,47.40
2023-02-11T05:44:32.627Z,46.78
2023-02-11T05:46:05.282Z,46.40
2023-02-11T05:47:37.987Z,41.42
2023-02-11T05:49:10.722Z,43.42
2023-02-11T05:50:43.488Z,42.30
2023-02-11T05:52:16.327Z,44.13
2023-02-11T05:53:49.110Z,44.83
2023-02-11T05:55:21.832Z,43.92
2023-02-11T05:56:53.779Z,41.17
2023-02-11T05:58:27.864Z,43.72
2023-02-11T06:00:00.578Z,44.20
2023-02-11T06:01:33.452Z,46.03
2023-02-11T06:03:06.375Z,39.80
2023-02-11T06:04:39.315Z,44.42
2023-02-11T06:06:12.803Z,40.40
2023-02-11T06:07:45.518Z,45.40
2023-02-11T06:09:17.301Z,41.55
2023-02-11T06:10:50.011Z,40.05
2023-02-11T06:12:22.788Z,39.75
2023-02-11T06:13:56.950Z,41.30
2023-02-11T06:15:29.740Z,43.95
2023-02-11T06:17:02.460Z,39.83
2023-02-11T06:18:35.148Z,51.20
2023-02-11T06:20:10.451Z,44.60
2023-02-11T06:21:44.556Z,70.05
2023-02-11T06:23:16.449Z,48.38
2023-02-11T06:25:00.928Z,66.43
2023-02-11T06:26:34.701Z,47.08
2023-02-11T06:28:07.479Z,44.35
2023-02-11T06:29:41.579Z,38.08
2023-02-11T06:31:14.858Z,42.20
2023-02-11T06:32:47.827Z,41.50
2023-02-11T06:34:19.676Z,39.72
2023-02-11T06:35:52.704Z,42.47
2023-02-11T06:37:24.662Z,42.60
2023-02-11T06:38:57.382Z,40.03
2023-02-11T06:40:30.131Z,42.83
2023-02-11T06:42:02.851Z,49.97
2023-02-11T06:43:35.566Z,44.78
2023-02-11T06:45:10.875Z,45.45
2023-02-11T06:46:43.677Z,42.22
2023-02-11T06:48:16.404Z,42.42
2023-02-11T06:49:49.082Z,39.47
2023-02-11T06:51:21.871Z,41.92
2023-02-11T06:52:54.562Z,36.40
2023-02-11T06:54:27.286Z,40.97
2023-02-11T06:56:04.534Z,39.95
2023-02-11T06:57:37.227Z,36.03
2023-02-11T06:59:12.539Z,39.85
2023-02-11T07:00:46.614Z,39.60
2023-02-11T07:02:20.981Z,38.85
2023-02-11T07:03:54.431Z,44.58
2023-02-11T07:05:27.133Z,42.58
2023-02-11T07:06:59.832Z,42.55
2023-02-11T07:08:33.464Z,39.72
2023-02-11T07:10:07.109Z,39.50
2023-02-11T07:11:40.123Z,37.80
2023-02-11T07:13:12.852Z,40.83
2023-02-11T07:14:45.707Z,40.40
2023-02-11T07:16:21.068Z,40.75
2023-02-11T07:17:53.812Z,38.10
2023-02-11T07:19:26.508Z,41.15
2023-02-11T07:20:59.210Z,37.10
2023-02-11T07:22:31.917Z,37.17
2023-02-11T07:24:10.770Z,35.80
2023-02-11T07:25:43.816Z,37.97
2023-02-11T07:27:16.517Z,38.03
2023-02-11T07:28:49.708Z,37.15
2023-02-11T07:30:22.764Z,34.75
2023-02-11T07:31:56.830Z,37.55
2023-02-11T07:33:29.582Z,38.63
2023-02-11T07:35:05.347Z,36.17
2023-02-11T07:36:38.464Z,36.47
2023-02-11T07:38:11.157Z,38.03
2023-02-11T07:39:43.859Z,36.88
2023-02-11T07:41:19.047Z,37.13
2023-02-11T07:42:51.756Z,39.72
2023-02-11T07:44:24.627Z,34.75
2023-02-11T07:45:57.409Z,38.58
2023-02-11T07:47:30.622Z,39.13
2023-02-11T07:49:03.516Z,39.47
2023-02-11T07:50:36.221Z,37.25
2023-02-11T07:52:08.956Z,37.65
2023-02-11T07:53:42.175Z,36.95
2023-02-11T07:55:14.990Z,38.70
2023-02-11T07:56:47.768Z,36.60
2023-02-11T07:58:20.483Z,41.15
2023-02-11T07:59:54.651Z,42.83
2023-02-11T08:01:28.560Z,55.22
2023-02-11T08:03:03.617Z,45.75
2023-02-11T08:04:36.335Z,46.08
2023-02-11T08:06:11.108Z,40.22
2023-02-11T08:07:43.782Z,45.97
2023-02-11T08:09:17.520Z,39.78
2023-02-11T08:10:50.537Z,39.92
2023-02-11T08:12:23.404Z,38.58
2023-02-11T08:13:57.508Z,41.95
2023-02-11T08:15:30.233Z,40.92
2023-02-11T08:17:02.958Z,38.70
2023-02-11T08:18:37.271Z,37.00
2023-02-11T08:20:10.804Z,41.05
2023-02-11T08:21:43.718Z,39.83
2023-02-11T08:23:16.440Z,39.03
2023-02-11T08:24:51.411Z,37.85
2023-02-11T08:26:27.018Z,40.70
2023-02-11T08:27:59.924Z,39.15
2023-02-11T08:29:32.775Z,35.97
2023-02-11T08:31:07.704Z,38.88
2023-02-11T08:32:40.439Z,37.67
2023-02-11T08:34:18.139Z,38.08
2023-02-11T08:35:50.840Z,38.95
2023-02-11T08:37:23.739Z,37.63
2023-02-11T08:39:08.622Z,39.22
2023-02-11T08:40:49.678Z,37.22
2023-02-11T08:42:22.755Z,42.45
2023-02-11T08:43:55.503Z,43.17
2023-02-11T08:45:28.484Z,41.45
2023-02-11T08:47:01.203Z,41.38
2023-02-11T08:48:33.983Z,39.78
2023-02-11T08:50:08.524Z,39.45
2023-02-11T08:51:41.310Z,40.53
2023-02-11T08:53:14.030Z,39.65
2023-02-11T08:54:47.071Z,41.05
2023-02-11T08:56:21.344Z,44.30
2023-02-11T08:57:54.036Z,42.38
2023-02-11T08:59:26.896Z,38.22
2023-02-11T09:00:59.666Z,44.17
2023-02-11T09:02:32.551Z,40.13
2023-02-11T09:04:06.173Z,39.78
2023-02-11T09:05:43.839Z,41.97
2023-02-11T09:07:16.586Z,38.95
2023-02-11T09:08:51.288Z,40.20
2023-02-11T09:10:24.002Z,38.03
2023-02-11T09:11:57.305Z,39.88
2023-02-11T09:13:30.050Z,39.88
2023-02-11T09:15:02.831Z,42.30
2023-02-11T09:16:37.772Z,41.22
2023-02-11T09:18:10.526Z,37.70
2023-02-11T09:19:43.256Z,39.10
2023-02-11T09:21:18.849Z,41.67
2023-02-11T09:22:51.584Z,42.72
2023-02-11T09:24:24.301Z,39.10
2023-02-11T09:25:57.020Z,39.80
2023-02-11T09:27:29.752Z,40.50
2023-02-11T09:29:03.349Z,41.72
2023-02-11T09:30:37.611Z,43.22
2023-02-11T09:32:10.519Z,42.47
2023-02-11T09:33:47.869Z,40.58
2023-02-11T09:35:20.705Z,42.78
2023-02-11T09:36:54.764Z,40.10
2023-02-11T09:38:27.515Z,41.13
2023-02-11T09:40:00.230Z,39.25
2023-02-11T09:41:47.796Z,39.13
2023-02-11T09:43:23.053Z,38.88
2023-02-11T09:44:55.808Z,40.50
2023-02-11T09:46:32.934Z,40.10
2023-02-11T09:48:11.374Z,38.95
2023-02-11T09:49:48.178Z,42.90
2023-02-11T09:51:30.523Z,38.78
2023-02-11T09:53:08.442Z,37.85
2023-02-11T09:54:50.640Z,41.03
2023-02-11T09:56:30.190Z,41.97
2023-02-11T09:58:06.176Z,39.40
2023-02-11T09:59:38.950Z,39.03
2023-02-11T10:01:23.998Z,38.67
2023-02-11T10:03:04.746Z,38.88
2023-02-11T10:04:52.643Z,38.75
2023-02-11T10:06:43.920Z,36.40
2023-02-11T10:08:24.746Z,37.47
2023-02-11T10:10:08.606Z,38.33
2023-02-11T10:11:53.202Z,38.28
2023-02-11T10:13:42.411Z,35.67
2023-02-11T10:15:27.504Z,41.92
2023-02-11T10:17:10.764Z,35.33
2023-02-11T10:18:59.530Z,37.80
2023-02-11T10:20:37.506Z,38.97
2023-02-11T10:22:16.945Z,38.63
2023-02-11T10:23:55.276Z,36.28
2023-02-11T10:25:30.660Z,36.70
2023-02-11T10:27:07.523Z,39.50
2023-02-11T10:28:43.295Z,39.97
2023-02-11T10:30:24.446Z,39.63
2023-02-11T10:31:58.683Z,36.15
2023-02-11T10:33:37.368Z,35.33
2023-02-11T10:35:16.134Z,37.10
2023-02-11T10:36:48.830Z,35.45
2023-02-11T10:38:21.584Z,33.88
2023-02-11T10:39:55.763Z,32.67
2023-02-11T10:41:33.505Z,33.53
2023-02-11T10:43:10.856Z,34.97
2023-02-11T10:44:50.493Z,35.53
2023-02-11T10:46:26.883Z,32.38
2023-02-11T10:48:00.171Z,37.45
2023-02-11T10:49:38.651Z,34.53
2023-02-11T10:51:19.405Z,36.65
2023-02-11T10:52:52.311Z,32.38
2023-02-11T10:54:25.019Z,33.45
2023-02-11T10:55:59.331Z,35.72
2023-02-11T10:57:37.359Z,35.22
2023-02-11T10:59:21.143Z,37.33
2023-02-11T11:00:57.139Z,34.40
2023-02-11T11:02:34.292Z,34.58
2023-02-11T11:04:07.507Z,32.75
2023-02-11T11:05:49.947Z,35.65
2023-02-11T11:07:24.360Z,32.72
2023-02-11T11:08:57.119Z,37.38
2023-02-11T11:10:36.793Z,34.78
2023-02-11T11:12:26.637Z,32.97
2023-02-11T11:14:03.219Z,31.50
2023-02-11T11:15:36.111Z,29.98
2023-02-11T11:17:19.750Z,32.60
2023-02-11T11:18:54.108Z,30.77
2023-02-11T11:20:27.840Z,33.53
2023-02-11T11:22:00.616Z,30.80
2023-02-11T11:23:35.701Z,30.00
2023-02-11T11:25:26.288Z,31.63
2023-02-11T11:27:01.410Z,30.73
2023-02-11T11:28:40.214Z,32.03
2023-02-11T11:30:17.682Z,31.30
2023-02-11T11:31:54.687Z,33.22
2023-02-11T11:33:29.578Z,29.42
2023-02-11T11:35:09.563Z,31.77
2023-02-11T11:36:42.310Z,29.23
2023-02-11T11:38:16.339Z,35.75
2023-02-11T11:39:56.512Z,32.22
2023-02-11T11:41:31.556Z,29.92
2023-02-11T11:43:08.189Z,30.20
2023-02-11T11:44:42.239Z,30.90
2023-02-11T11:46:23.673Z,30.23
2023-02-11T11:47:59.697Z,31.30
2023-02-11T11:49:38.449Z,28.75
2023-02-11T11:51:12.609Z,29.20
2023-02-11T11:52:51.622Z,30.05
2023-02-11T11:54:25.516Z,28.77
2023-02-11T11:56:03.870Z,29.27
2023-02-11T11:57:39.592Z,29.13
2023-02-11T11:59:16.553Z,29.08
2023-02-11T12:01:02.941Z,31.63
2023-02-11T12:03:00.146Z,28.55
2023-02-11T12:04:50.975Z,28.95
2023-02-11T12:06:32.045Z,28.17
2023-02-11T12:08:14.892Z,27.60
2023-02-11T12:09:59.457Z,29.23
2023-02-11T12:11:41.084Z,30.00
2023-02-11T12:13:24.918Z,27.95
2023-02-11T12:15:06.512Z,32.58
2023-02-11T12:16:52.915Z,29.52
2023-02-11T12:18:51.686Z,27.70
2023-02-11T12:20:33.024Z,27.50
2023-02-11T12:22:12.015Z,28.38
2023-02-11T12:23:56.943Z,28.52
2023-02-11T12:25:36.165Z,25.35
2023-02-11T12:27:14.639Z,27.63
2023-02-11T12:29:03.288Z,27.23
2023-02-11T12:30:50.797Z,29.60
2023-02-11T12:32:33.442Z,29.42
2023-02-11T12:34:29.827Z,24.50
2023-02-11T12:36:12.401Z,28.63
2023-02-11T12:38:08.228Z,27.55
2023-02-11T12:39:46.030Z,25.75
2023-02-11T12:41:55.888Z,26.30
2023-02-11T12:43:37.024Z,26.33
2023-02-11T12:45:22.657Z,25.95
2023-02-11T12:47:04.636Z,25.60
2023-02-11T12:49:12.627Z,25.00
2023-02-11T12:50:51.636Z,25.38
2023-02-11T12:52:37.831Z,24.80
2023-02-11T12:54:20.746Z,23.92
2023-02-11T12:55:58.910Z,27.17
2023-02-11T12:57:35.611Z,25.27
2023-02-11T12:59:14.489Z,24.90
2023-02-11T13:00:52.507Z,23.02
2023-02-11T13:02:34.845Z,23.92
2023-02-11T13:04:14.604Z,21.88
2023-02-11T13:05:50.548Z,22.30
2023-02-11T13:07:29.081Z,21.42
2023-02-11T13:09:05.303Z,22.45
2023-02-11T13:10:41.022Z,23.08
2023-02-11T13:12:33.014Z,24.60
2023-02-11T13:14:10.544Z,21.98
2023-02-11T13:15:44.548Z,24.65
2023-02-11T13:17:23.391Z,24.48
2023-02-11T13:19:03.693Z,24.70
2023-02-11T13:20:46.316Z,22.67
2023-02-11T13:22:25.063Z,22.25
2023-02-11T13:24:05.416Z,21.73
2023-02-11T13:25:45.110Z,22.20
2023-02-11T13:27:28.079Z,19.83
2023-02-11T13:29:16.387Z,20.95
2023-02-11T13:30:57.584Z,19.58
2023-02-11T13:33:14.113Z,21.65
2023-02-11T13:34:58.391Z,18.38
2023-02-11T13:36:33.258Z,20.35
2023-02-11T13:38:14.504Z,18.73
2023-02-11T13:39:57.524Z,15.65
2023-02-11T13:41:33.908Z,16.60
2023-02-11T13:43:12.919Z,16.73
2023-02-11T13:44:46.630Z,14.35
2023-02-11T13:46:19.968Z,15.88
2023-02-11T13:47:58.990Z,17.27
2023-02-11T13:49:40.431Z,15.90
2023-02-11T13:51:16.326Z,15.77
2023-02-11T13:52:59.550Z,16.67
2023-02-11T13:54:36.394Z,18.35
2023-02-11T13:56:11.282Z,16.83
2023-02-11T13:57:44.021Z,14.57
2023-02-11T13:59:46.914Z,15.63
2023-02-11T14:01:41.311Z,13.98
2023-02-11T14:03:50.499Z,14.57
2023-02-11T14:05:47.003Z,15.45
2023-02-11T14:07:46.093Z,18.65
2023-02-11T14:09:39.075Z,15.18
2023-02-11T14:11:46.626Z,16.15
2023-02-11T14:13:24.655Z,14.57
2023-02-11T14:15:28.117Z,16.02
2023-02-11T14:17:30.705Z,14.05
2023-02-11T14:19:03.608Z,110.32
2023-02-11T14:20:44.555Z,10.68
2023-02-11T14:22:20.443Z,13.13
2023-02-11T14:23:53.674Z,11.15
2023-02-11T14:25:28.151Z,12.65
2023-02-11T14:27:05.265Z,10.27
2023-02-11T14:28:39.620Z,10.95
2023-02-11T14:30:39.155Z,13.55
2023-02-11T14:32:24.783Z,10.68
2023-02-11T14:34:20.516Z,10.85
2023-02-11T14:36:03.342Z,11.63
2023-02-11T14:37:50.347Z,10.57
2023-02-11T14:39:33.651Z,10.68
2023-02-11T14:41:11.890Z,10.23
2023-02-11T14:42:45.013Z,9.40
2023-02-11T14:44:21.420Z,9.27
2023-02-11T14:45:57.001Z,8.73
2023-02-11T14:47:35.478Z,8.90
2023-02-11T14:49:14.516Z,8.70
2023-02-11T14:50:51.270Z,8.80
2023-02-11T14:52:29.300Z,9.18
2023-02-11T14:54:12.833Z,9.55
2023-02-11T14:55:48.801Z,9.25
2023-02-11T14:57:22.955Z,11.02
2023-02-11T14:58:56.624Z,8.93
2023-02-11T15:00:29.538Z,8.43
2023-02-11T15:02:02.348Z,10.48
2023-02-11T15:03:36.911Z,12.30
2023-02-11T15:05:21.634Z,12.90
2023-02-11T15:06:55.387Z,10.05
2023-02-11T15:08:30.003Z,13.38
2023-02-11T15:10:02.822Z,10.65
2023-02-11T15:11:40.147Z,8.70
2023-02-11T15:13:19.779Z,9.30
2023-02-11T15:14:55.991Z,7.45
2023-02-11T15:16:29.376Z,9.98
2023-02-11T15:18:05.189Z,18.52
2023-02-11T15:19:41.107Z,21.50
2023-02-11T15:21:14.208Z,24.75
2023-02-11T15:22:48.336Z,23.30
2023-02-11T15:24:26.590Z,20.42
2023-02-11T15:26:04.144Z,23.92
2023-02-11T15:27:41.183Z,24.08
2023-02-11T15:29:18.213Z,24.42
2023-02-11T15:30:59.466Z,29.17
2023-02-11T15:32:33.265Z,26.20
2023-02-11T15:34:09.300Z,25.13
2023-02-11T15:35:42.703Z,24.67
2023-02-11T15:37:20.855Z,23.98
2023-02-11T15:39:18.421Z,25.15
2023-02-11T15:40:56.596Z,27.85
2023-02-11T15:42:37.959Z,30.52
2023-02-11T15:44:32.402Z,26.67
2023-02-11T15:46:05.430Z,29.25
2023-02-11T15:47:38.612Z,28.63
2023-02-11T15:49:19.108Z,29.27
2023-02-11T15:50:55.446Z,32.72
2023-02-11T15:52:29.787Z,29.00
2023-02-11T15:54:04.701Z,29.27
2023-02-11T15:55:37.764Z,29.08
2023-02-11T15:57:11.542Z,26.25
2023-02-11T15:58:46.587Z,26.42
2023-02-11T16:00:24.489Z,26.60
2023-02-11T16:01:59.338Z,26.38
2023-02-11T16:03:33.237Z,26.77
2023-02-11T16:05:09.380Z,25.17
2023-02-11T16:06:47.451Z,30.00
2023-02-11T16:08:25.743Z,27.73
2023-02-11T16:09:59.301Z,29.63
2023-02-11T16:11:33.716Z,27.65
2023-02-11T16:13:20.024Z,25.75
2023-02-11T16:14:52.744Z,26.20
2023-02-11T16:16:29.966Z,27.30
2023-02-11T16:18:04.672Z,26.63
2023-02-11T16:19:43.692Z,25.65
2023-02-11T16:21:18.929Z,26.27
2023-02-11T16:22:51.871Z,29.38
2023-02-11T16:24:28.280Z,25.70
2023-02-11T16:26:08.336Z,25.13
2023-02-11T16:27:42.350Z,25.70
2023-02-11T16:29:17.512Z,26.95
2023-02-11T16:30:54.780Z,29.67
2023-02-11T16:32:30.589Z,25.55
2023-02-11T16:34:03.303Z,26.25
2023-02-11T16:35:37.321Z,25.98
2023-02-11T16:37:10.046Z,23.88
2023-02-11T16:38:42.730Z,24.83
2023-02-11T16:40:15.579Z,24.63
2023-02-11T16:41:50.447Z,25.00
2023-02-11T16:43:23.528Z,25.65
2023-02-11T16:44:56.474Z,25.60
2023-02-11T16:46:29.429Z,25.08
2023-02-11T16:48:03.546Z,26.27
2023-02-11T16:49:41.362Z,28.23
2023-02-11T16:51:14.377Z,25.13
2023-02-11T16:52:47.185Z,27.42
2023-02-11T16:54:20.935Z,24.13
2023-02-11T16:55:54.319Z,27.75
2023-02-11T16:57:30.038Z,26.30
2023-02-11T16:59:03.061Z,26.67
2023-02-11T17:00:36.724Z,24.67
2023-02-11T17:02:14.797Z,24.20
2023-02-11T17:03:49.144Z,22.98
2023-02-11T17:05:25.082Z,22.85
2023-02-11T17:06:58.782Z,23.25
2023-02-11T17:08:30.617Z,24.52
2023-02-11T17:10:03.400Z,24.42
2023-02-11T17:11:36.150Z,26.10
2023-02-11T17:13:09.096Z,25.80
2023-02-11T17:14:41.792Z,21.63
2023-02-11T17:16:20.566Z,25.48
2023-02-11T17:17:53.295Z,24.58
2023-02-11T17:19:27.358Z,23.33
2023-02-11T17:21:00.077Z,25.10
2023-02-11T17:22:32.812Z,23.95
2023-02-11T17:24:05.936Z,26.35
2023-02-11T17:25:39.000Z,25.60
2023-02-11T17:27:12.627Z,23.52
2023-02-11T17:28:47.466Z,27.85
2023-02-11T17:30:20.517Z,24.40
2023-02-11T17:31:54.133Z,24.92
2023-02-11T17:33:26.953Z,25.67
2023-02-11T17:35:01.037Z,23.52
2023-02-11T17:36:34.186Z,23.85
2023-02-11T17:38:06.902Z,24.65
2023-02-11T17:39:40.875Z,22.08
2023-02-11T17:41:13.706Z,24.30
2023-02-11T17:42:46.536Z,25.27
2023-02-11T17:44:19.321Z,24.88
2023-02-11T17:45:52.400Z,26.73
2023-02-11T17:47:25.306Z,28.05
2023-02-11T17:49:00.269Z,25.58
2023-02-11T17:50:36.681Z,28.85
2023-02-11T17:52:09.775Z,27.00
2023-02-11T17:53:42.456Z,32.05
2023-02-11T17:55:15.312Z,29.60
2023-02-11T17:56:50.710Z,28.02
2023-02-11T17:58:23.968Z,28.55
2023-02-11T17:59:56.755Z,27.65
2023-02-11T18:01:29.860Z,28.50
2023-02-11T18:03:03.650Z,28.15
2023-02-11T18:04:36.487Z,25.08
2023-02-11T18:06:10.571Z,26.15
2023-02-11T18:07:43.281Z,28.42
2023-02-11T18:09:15.994Z,28.50
2023-02-11T18:10:48.699Z,25.27
2023-02-11T18:12:25.547Z,27.52
2023-02-11T18:13:59.649Z,24.85
2023-02-11T18:15:34.412Z,24.60
2023-02-11T18:17:07.646Z,26.40
2023-02-11T18:18:40.327Z,27.63
2023-02-11T18:20:13.434Z,25.77
2023-02-11T18:21:48.782Z,26.30
2023-02-11T18:23:21.529Z,25.77
2023-02-11T18:24:55.290Z,26.50
2023-02-11T18:26:28.189Z,24.98
2023-02-11T18:28:00.949Z,26.58
2023-02-11T18:29:33.702Z,27.55
2023-02-11T18:31:07.521Z,24.48
2023-02-11T18:32:40.281Z,26.35
2023-02-11T18:34:13.347Z,29.20
2023-02-11T18:35:48.980Z,26.17
2023-02-11T18:37:23.207Z,27.33
2023-02-11T18:38:57.958Z,25.67
2023-02-11T18:40:30.687Z,26.40
2023-02-11T18:42:03.445Z,26.48
2023-02-11T18:43:36.965Z,26.60
2023-02-11T18:45:14.849Z,28.23
2023-02-11T18:46:47.516Z,29.27
2023-02-11T18:48:20.353Z,27.35
2023-02-11T18:49:53.208Z,26.20
2023-02-11T18:51:26.212Z,27.83
2023-02-11T18:53:00.231Z,28.95
2023-02-11T18:54:32.962Z,26.70
2023-02-11T18:56:09.006Z,27.80
2023-02-11T18:57:42.877Z,29.50
2023-02-11T18:59:15.668Z,28.27
2023-02-11T19:00:49.480Z,28.13
2023-02-11T19:02:22.222Z,28.35
2023-02-11T19:03:55.875Z,28.13
2023-02-11T19:05:33.156Z,27.05
2023-02-11T19:07:05.872Z,27.73
2023-02-11T19:08:38.946Z,28.15
2023-02-11T19:10:13.057Z,28.67
2023-02-11T19:11:49.706Z,25.15
2023-02-11T19:13:22.414Z,27.80
2023-02-11T19:14:55.169Z,32.70
2023-02-11T19:16:27.887Z,23.52
2023-02-11T19:18:00.639Z,28.92
2023-02-11T19:19:36.015Z,26.85
2023-02-11T19:21:09.995Z,29.05
2023-02-11T19:22:42.724Z,29.52
2023-02-11T19:24:19.629Z,28.55
2023-02-11T19:25:52.619Z,25.80
2023-02-11T19:27:25.534Z,27.02
2023-02-11T19:28:59.602Z,29.13
2023-02-11T19:30:32.578Z,28.45
2023-02-11T19:32:06.914Z,29.85
2023-02-11T19:33:39.655Z,32.63
2023-02-11T19:35:12.387Z,28.88
2023-02-11T19:36:45.239Z,30.50
2023-02-11T19:38:19.047Z,30.98
2023-02-11T19:39:53.154Z,31.02
2023-02-11T19:41:25.859Z,32.08
2023-02-11T19:42:58.711Z,25.85
2023-02-11T19:44:31.461Z,26.42
2023-02-11T19:46:04.796Z,27.90
2023-02-11T19:47:37.613Z,27.23
2023-02-11T19:49:12.326Z,26.88
2023-02-11T19:50:45.012Z,28.25
2023-02-11T19:52:17.735Z,28.05
2023-02-11T19:53:51.075Z,25.60
2023-02-11T19:55:25.105Z,25.30
2023-02-11T19:56:58.970Z,29.02
2023-02-11T19:58:31.641Z,24.73
2023-02-11T20:00:06.229Z,26.85
2023-02-11T20:01:39.081Z,26.85
2023-02-11T20:03:11.842Z,28.92
2023-02-11T20:04:44.688Z,27.73
2023-02-11T20:06:20.140Z,27.33
2023-02-11T20:07:52.826Z,26.20
2023-02-11T20:09:26.490Z,25.95
2023-02-11T20:11:05.860Z,29.30
2023-02-11T20:12:38.793Z,29.50
2023-02-11T20:14:14.630Z,29.52
2023-02-11T20:15:47.473Z,27.27
2023-02-11T20:17:20.223Z,24.08
2023-02-11T20:18:52.919Z,24.48
2023-02-11T20:20:25.669Z,24.98
2023-02-11T20:21:58.405Z,25.10
2023-02-11T20:23:30.240Z,24.70
2023-02-11T20:25:02.974Z,23.00
2023-02-11T20:26:40.803Z,26.85
2023-02-11T20:28:13.525Z,26.90
2023-02-11T20:29:46.457Z,25.88
2023-02-11T20:31:19.886Z,26.35
2023-02-11T20:32:52.620Z,26.02
2023-02-11T20:34:25.687Z,27.98
2023-02-11T20:36:00.154Z,27.63
2023-02-11T20:37:32.875Z,26.63
2023-02-11T20:39:07.064Z,24.95
2023-02-11T20:40:39.759Z,23.50
2023-02-11T20:42:14.872Z,24.30